sensor_id;sensor_type;location;lat;lon;timestamp;pressure;altitude;pressure_sealevel;temperature;humidity
46464;BME280;32161;48.148;-1.554;2023-02-08T00:01:19;102929.31;;;1.66;76.63
46464;BME280;32161;48.148;-1.554;2023-02-08T00:03:48;102930.41;;;1.64;76.74
46464;BME280;32161;48.148;-1.554;2023-02-08T00:06:17;102925.41;;;1.59;76.81
46464;BME280;32161;48.148;-1.554;2023-02-08T00:08:45;102929.28;;;1.55;77.22
46464;BME280;32161;48.148;-1.554;2023-02-08T00:11:13;102924.91;;;1.54;77.70
46464;BME280;32161;48.148;-1.554;2023-02-08T00:13:40;102921.97;;;1.57;77.18
46464;BME280;32161;48.148;-1.554;2023-02-08T00:16:08;102920.75;;;1.50;77.59
46464;BME280;32161;48.148;-1.554;2023-02-08T00:18:38;102913.88;;;1.46;77.68
46464;BME280;32161;48.148;-1.554;2023-02-08T00:21:08;102912.41;;;1.42;77.55
46464;BME280;32161;48.148;-1.554;2023-02-08T00:23:36;102914.00;;;1.44;77.80
46464;BME280;32161;48.148;-1.554;2023-02-08T00:26:04;102924.88;;;1.43;78.05
46464;BME280;32161;48.148;-1.554;2023-02-08T00:28:32;102928.41;;;1.43;78.00
46464;BME280;32161;48.148;-1.554;2023-02-08T00:31:00;102928.50;;;1.42;77.59
46464;BME280;32161;48.148;-1.554;2023-02-08T00:33:27;102928.00;;;1.37;77.87
46464;BME280;32161;48.148;-1.554;2023-02-08T00:35:59;102921.66;;;1.38;77.50
46464;BME280;32161;48.148;-1.554;2023-02-08T00:38:28;102929.19;;;1.33;78.14
46464;BME280;32161;48.148;-1.554;2023-02-08T00:40:55;102923.84;;;1.33;77.90
46464;BME280;32161;48.148;-1.554;2023-02-08T00:43:23;102923.63;;;1.36;78.66
46464;BME280;32161;48.148;-1.554;2023-02-08T00:45:53;102930.69;;;1.37;79.16
46464;BME280;32161;48.148;-1.554;2023-02-08T00:48:21;102926.78;;;1.41;78.82
46464;BME280;32161;48.148;-1.554;2023-02-08T00:50:59;102925.59;;;1.45;78.81
46464;BME280;32161;48.148;-1.554;2023-02-08T00:53:27;102917.06;;;1.40;79.14
46464;BME280;32161;48.148;-1.554;2023-02-08T00:55:55;102926.31;;;1.36;78.85
46464;BME280;32161;48.148;-1.554;2023-02-08T00:58:23;102925.53;;;1.34;79.52
46464;BME280;32161;48.148;-1.554;2023-02-08T01:00:52;102922.78;;;1.35;79.17
46464;BME280;32161;48.148;-1.554;2023-02-08T01:03:20;102919.09;;;1.36;78.81
46464;BME280;32161;48.148;-1.554;2023-02-08T01:05:48;102919.09;;;1.36;79.19
46464;BME280;32161;48.148;-1.554;2023-02-08T01:08:17;102916.44;;;1.36;79.06
46464;BME280;32161;48.148;-1.554;2023-02-08T01:10:45;102908.53;;;1.35;78.63
46464;BME280;32161;48.148;-1.554;2023-02-08T01:13:13;102922.78;;;1.35;78.60
46464;BME280;32161;48.148;-1.554;2023-02-08T01:15:41;102916.94;;;1.41;78.23
46464;BME280;32161;48.148;-1.554;2023-02-08T01:18:09;102908.53;;;1.35;78.28
46464;BME280;32161;48.148;-1.554;2023-02-08T01:20:37;102916.78;;;1.32;78.24
46464;BME280;32161;48.148;-1.554;2023-02-08T01:23:05;102914.19;;;1.30;78.39
46464;BME280;32161;48.148;-1.554;2023-02-08T01:25:33;102916.16;;;1.28;78.91
46464;BME280;32161;48.148;-1.554;2023-02-08T01:28:01;102907.16;;;1.29;78.67
46464;BME280;32161;48.148;-1.554;2023-02-08T01:30:29;102906.53;;;1.26;78.49
46464;BME280;32161;48.148;-1.554;2023-02-08T01:32:56;102906.53;;;1.26;78.80
46464;BME280;32161;48.148;-1.554;2023-02-08T01:35:24;102913.09;;;1.21;78.92
46464;BME280;32161;48.148;-1.554;2023-02-08T01:37:51;102915.25;;;1.16;78.22
46464;BME280;32161;48.148;-1.554;2023-02-08T01:40:19;102922.53;;;1.14;78.02
46464;BME280;32161;48.148;-1.554;2023-02-08T01:42:48;102913.78;;;1.12;77.65
46464;BME280;32161;48.148;-1.554;2023-02-08T01:45:24;102919.88;;;1.14;77.56
46464;BME280;32161;48.148;-1.554;2023-02-08T01:47:58;102915.34;;;1.15;77.37
46464;BME280;32161;48.148;-1.554;2023-02-08T01:50:35;102916.47;;;1.12;77.36
46464;BME280;32161;48.148;-1.554;2023-02-08T01:53:05;102915.84;;;1.09;77.87
46464;BME280;32161;48.148;-1.554;2023-02-08T01:55:37;102906.19;;;1.06;78.87
46464;BME280;32161;48.148;-1.554;2023-02-08T01:58:09;102911.78;;;1.03;78.86
46464;BME280;32161;48.148;-1.554;2023-02-08T02:00:39;102905.34;;;1.06;78.46
46464;BME280;32161;48.148;-1.554;2023-02-08T02:03:07;102898.28;;;1.05;78.30
46464;BME280;32161;48.148;-1.554;2023-02-08T02:05:39;102899.13;;;1.05;78.77
46464;BME280;32161;48.148;-1.554;2023-02-08T02:08:08;102898.06;;;1.08;79.52
46464;BME280;32161;48.148;-1.554;2023-02-08T02:10:38;102898.50;;;1.02;79.56
46464;BME280;32161;48.148;-1.554;2023-02-08T02:13:10;102910.19;;;1.01;79.00
46464;BME280;32161;48.148;-1.554;2023-02-08T02:15:39;102908.38;;;1.01;78.19
46464;BME280;32161;48.148;-1.554;2023-02-08T02:18:08;102908.38;;;1.01;78.63
46464;BME280;32161;48.148;-1.554;2023-02-08T02:20:57;102913.59;;;1.03;78.84
46464;BME280;32161;48.148;-1.554;2023-02-08T02:27:20;102900.44;;;1.00;78.85
46464;BME280;32161;48.148;-1.554;2023-02-08T02:33:19;102896.91;;;0.99;79.66
46464;BME280;32161;48.148;-1.554;2023-02-08T02:35:59;102894.94;;;0.90;80.08
46464;BME280;32161;48.148;-1.554;2023-02-08T02:38:40;102900.63;;;0.85;79.70
46464;BME280;32161;48.148;-1.554;2023-02-08T02:41:20;102901.19;;;0.78;79.59
46464;BME280;32161;48.148;-1.554;2023-02-08T02:44:06;102881.47;;;0.79;79.10
46464;BME280;32161;48.148;-1.554;2023-02-08T02:46:40;102887.06;;;0.76;78.92
46464;BME280;32161;48.148;-1.554;2023-02-08T02:49:15;102879.16;;;0.74;78.64
46464;BME280;32161;48.148;-1.554;2023-02-08T02:51:49;102877.03;;;0.66;79.11
46464;BME280;32161;48.148;-1.554;2023-02-08T02:54:21;102877.38;;;0.62;79.10
46464;BME280;32161;48.148;-1.554;2023-02-08T02:56:54;102874.06;;;0.58;78.93
46464;BME280;32161;48.148;-1.554;2023-02-08T02:59:26;102870.22;;;0.62;78.29
46464;BME280;32161;48.148;-1.554;2023-02-08T03:01:54;102870.22;;;0.62;77.95
46464;BME280;32161;48.148;-1.554;2023-02-08T03:05:01;102865.19;;;0.58;77.28
46464;BME280;32161;48.148;-1.554;2023-02-08T03:08:10;102865.28;;;0.56;78.19
46464;BME280;32161;48.148;-1.554;2023-02-08T03:11:09;102851.50;;;0.49;79.03
46464;BME280;32161;48.148;-1.554;2023-02-08T03:14:15;102847.47;;;0.44;80.03
46464;BME280;32161;48.148;-1.554;2023-02-08T03:17:11;102838.47;;;0.45;80.54
46464;BME280;32161;48.148;-1.554;2023-02-08T03:19:49;102836.00;;;0.42;80.73
46464;BME280;32161;48.148;-1.554;2023-02-08T03:22:25;102837.97;;;0.40;80.44
46464;BME280;32161;48.148;-1.554;2023-02-08T03:25:04;102837.13;;;0.39;80.11
46464;BME280;32161;48.148;-1.554;2023-02-08T03:27:39;102832.69;;;0.38;79.79
46464;BME280;32161;48.148;-1.554;2023-02-08T03:30:16;102828.22;;;0.39;79.77
46464;BME280;32161;48.148;-1.554;2023-02-08T03:32:49;102830.03;;;0.38;79.87
46464;BME280;32161;48.148;-1.554;2023-02-08T03:35:21;102832.09;;;0.35;80.35
46464;BME280;32161;48.148;-1.554;2023-02-08T03:37:57;102833.25;;;0.31;80.80
46464;BME280;32161;48.148;-1.554;2023-02-08T03:40:30;102829.53;;;0.33;80.15
46464;BME280;32161;48.148;-1.554;2023-02-08T03:43:04;102827.81;;;0.32;79.93
46464;BME280;32161;48.148;-1.554;2023-02-08T03:45:37;102824.28;;;0.32;80.45
46464;BME280;32161;48.148;-1.554;2023-02-08T03:48:08;102823.31;;;0.33;80.58
46464;BME280;32161;48.148;-1.554;2023-02-08T03:50:39;102817.69;;;0.24;80.83
46464;BME280;32161;48.148;-1.554;2023-02-08T03:53:10;102820.56;;;0.21;81.29
46464;BME280;32161;48.148;-1.554;2023-02-08T03:55:38;102822.41;;;0.21;80.56
46464;BME280;32161;48.148;-1.554;2023-02-08T03:58:14;102814.38;;;0.21;80.27
46464;BME280;32161;48.148;-1.554;2023-02-08T04:00:50;102814.25;;;0.22;80.51
46464;BME280;32161;48.148;-1.554;2023-02-08T04:03:21;102818.88;;;0.20;81.19
46464;BME280;32161;48.148;-1.554;2023-02-08T04:05:50;102826.13;;;0.18;81.61
46464;BME280;32161;48.148;-1.554;2023-02-08T04:08:19;102823.69;;;0.15;81.68
46464;BME280;32161;48.148;-1.554;2023-02-08T04:10:47;102822.09;;;0.13;81.31
46464;BME280;32161;48.148;-1.554;2023-02-08T04:13:15;102822.09;;;0.13;80.64
46464;BME280;32161;48.148;-1.554;2023-02-08T04:15:42;102817.47;;;0.15;80.67
46464;BME280;32161;48.148;-1.554;2023-02-08T04:18:10;102810.56;;;0.12;81.07
46464;BME280;32161;48.148;-1.554;2023-02-08T04:20:38;102812.97;;;0.15;80.75
46464;BME280;32161;48.148;-1.554;2023-02-08T04:23:06;102814.50;;;0.19;79.81
46464;BME280;32161;48.148;-1.554;2023-02-08T04:25:35;102814.81;;;0.15;78.86
46464;BME280;32161;48.148;-1.554;2023-02-08T04:28:03;102807.63;;;0.15;79.77
46464;BME280;32161;48.148;-1.554;2023-02-08T04:30:30;102816.00;;;0.11;80.39
46464;BME280;32161;48.148;-1.554;2023-02-08T04:32:58;102823.06;;;0.12;81.01
46464;BME280;32161;48.148;-1.554;2023-02-08T04:35:26;102816.97;;;0.10;81.02
46464;BME280;32161;48.148;-1.554;2023-02-08T04:37:54;102812.94;;;0.04;80.55
46464;BME280;32161;48.148;-1.554;2023-02-08T04:40:21;102817.09;;;-0.05;80.99
46464;BME280;32161;48.148;-1.554;2023-02-08T04:42:50;102816.59;;;-0.10;81.23
46464;BME280;32161;48.148;-1.554;2023-02-08T04:45:18;102820.31;;;-0.12;80.61
46464;BME280;32161;48.148;-1.554;2023-02-08T04:47:45;102814.75;;;-0.09;81.25
46464;BME280;32161;48.148;-1.554;2023-02-08T04:50:13;102807.19;;;-0.15;80.92
46464;BME280;32161;48.148;-1.554;2023-02-08T04:52:41;102806.66;;;-0.20;80.76
46464;BME280;32161;48.148;-1.554;2023-02-08T04:55:08;102806.97;;;-0.25;80.90
46464;BME280;32161;48.148;-1.554;2023-02-08T04:57:36;102806.22;;;-0.27;80.76
46464;BME280;32161;48.148;-1.554;2023-02-08T05:00:06;102805.28;;;-0.26;81.09
46464;BME280;32161;48.148;-1.554;2023-02-08T05:02:34;102798.00;;;-0.24;80.29
46464;BME280;32161;48.148;-1.554;2023-02-08T05:05:02;102807.75;;;-0.23;80.00
46464;BME280;32161;48.148;-1.554;2023-02-08T05:07:31;102802.50;;;-0.25;79.28
46464;BME280;32161;48.148;-1.554;2023-02-08T05:09:58;102802.41;;;-0.23;79.04
46464;BME280;32161;48.148;-1.554;2023-02-08T05:12:26;102804.09;;;-0.22;79.06
46464;BME280;32161;48.148;-1.554;2023-02-08T05:14:53;102789.13;;;-0.25;78.73
46464;BME280;32161;48.148;-1.554;2023-02-08T05:17:22;102806.00;;;-0.24;78.56
46464;BME280;32161;48.148;-1.554;2023-02-08T05:19:50;102804.19;;;-0.23;78.21
46464;BME280;32161;48.148;-1.554;2023-02-08T05:22:17;102804.19;;;-0.23;77.70
46464;BME280;32161;48.148;-1.554;2023-02-08T05:24:45;102801.50;;;-0.23;78.18
46464;BME280;32161;48.148;-1.554;2023-02-08T05:27:13;102800.66;;;-0.24;78.18
46464;BME280;32161;48.148;-1.554;2023-02-08T05:29:40;102801.50;;;-0.23;78.10
46464;BME280;32161;48.148;-1.554;2023-02-08T05:32:08;102799.59;;;-0.21;78.50
46464;BME280;32161;48.148;-1.554;2023-02-08T05:34:38;102796.94;;;-0.21;78.78
46464;BME280;32161;48.148;-1.554;2023-02-08T05:37:05;102785.72;;;-0.27;79.48
46464;BME280;32161;48.148;-1.554;2023-02-08T05:39:33;102792.97;;;-0.29;80.05
46464;BME280;32161;48.148;-1.554;2023-02-08T05:42:00;102792.47;;;-0.34;80.82
46464;BME280;32161;48.148;-1.554;2023-02-08T05:44:28;102794.81;;;-0.42;81.23
46464;BME280;32161;48.148;-1.554;2023-02-08T05:46:56;102795.56;;;-0.40;81.73
46464;BME280;32161;48.148;-1.554;2023-02-08T05:49:24;102800.25;;;-0.43;81.74
46464;BME280;32161;48.148;-1.554;2023-02-08T05:51:53;102799.28;;;-0.42;82.17
46464;BME280;32161;48.148;-1.554;2023-02-08T05:54:21;102800.03;;;-0.40;82.60
46464;BME280;32161;48.148;-1.554;2023-02-08T05:56:48;102798.56;;;-0.44;82.19
46464;BME280;32161;48.148;-1.554;2023-02-08T05:59:16;102792.56;;;-0.48;82.08
46464;BME280;32161;48.148;-1.554;2023-02-08T06:01:44;102796.00;;;-0.46;82.12
46464;BME280;32161;48.148;-1.554;2023-02-08T06:04:11;102798.44;;;-0.43;81.92
46464;BME280;32161;48.148;-1.554;2023-02-08T06:06:39;102794.28;;;-0.47;82.00
46464;BME280;32161;48.148;-1.554;2023-02-08T06:09:08;102795.78;;;-0.56;82.20
46464;BME280;32161;48.148;-1.554;2023-02-08T06:11:35;102804.31;;;-0.63;82.67
46464;BME280;32161;48.148;-1.554;2023-02-08T06:14:03;102808.81;;;-0.64;82.45
46464;BME280;32161;48.148;-1.554;2023-02-08T06:16:31;102807.53;;;-0.71;82.92
46464;BME280;32161;48.148;-1.554;2023-02-08T06:18:58;102800.56;;;-0.74;83.51
46464;BME280;32161;48.148;-1.554;2023-02-08T06:21:26;102792.78;;;-0.77;84.04
46464;BME280;32161;48.148;-1.554;2023-02-08T06:23:53;102783.16;;;-0.79;83.40
46464;BME280;32161;48.148;-1.554;2023-02-08T06:26:22;102785.97;;;-0.81;83.71
46464;BME280;32161;48.148;-1.554;2023-02-08T06:28:50;102790.41;;;-0.81;83.90
46464;BME280;32161;48.148;-1.554;2023-02-08T06:31:18;102788.19;;;-0.75;83.64
46464;BME280;32161;48.148;-1.554;2023-02-08T06:33:45;102787.22;;;-0.74;83.89
46464;BME280;32161;48.148;-1.554;2023-02-08T06:36:13;102786.81;;;-0.80;83.90
46464;BME280;32161;48.148;-1.554;2023-02-08T06:38:40;102788.38;;;-0.78;83.66
46464;BME280;32161;48.148;-1.554;2023-02-08T06:41:08;102786.47;;;-0.76;83.59
46464;BME280;32161;48.148;-1.554;2023-02-08T06:43:37;102789.56;;;-0.82;83.20
46464;BME280;32161;48.148;-1.554;2023-02-08T06:46:05;102794.38;;;-0.87;83.04
46464;BME280;32161;48.148;-1.554;2023-02-08T06:48:33;102791.81;;;-0.88;82.48
46464;BME280;32161;48.148;-1.554;2023-02-08T06:51:02;102791.72;;;-0.87;82.57
46464;BME280;32161;48.148;-1.554;2023-02-08T06:53:29;102782.72;;;-0.86;82.49
46464;BME280;32161;48.148;-1.554;2023-02-08T06:55:57;102783.50;;;-0.84;82.41
46464;BME280;32161;48.148;-1.554;2023-02-08T06:58:25;102780.19;;;-0.87;83.01
46464;BME280;32161;48.148;-1.554;2023-02-08T07:00:54;102771.41;;;-0.89;82.64
46464;BME280;32161;48.148;-1.554;2023-02-08T07:03:21;102779.09;;;-0.85;82.39
46464;BME280;32161;48.148;-1.554;2023-02-08T07:05:49;102782.53;;;-0.83;81.30
46464;BME280;32161;48.148;-1.554;2023-02-08T07:08:16;102781.56;;;-0.82;81.02
46464;BME280;32161;48.148;-1.554;2023-02-08T07:10:44;102776.00;;;-0.79;80.81
46464;BME280;32161;48.148;-1.554;2023-02-08T07:13:11;102767.88;;;-0.77;80.48
46464;BME280;32161;48.148;-1.554;2023-02-08T07:15:39;102768.75;;;-0.77;80.80
46464;BME280;32161;48.148;-1.554;2023-02-08T07:18:08;102759.56;;;-0.72;79.76
46464;BME280;32161;48.148;-1.554;2023-02-08T07:20:36;102766.50;;;-0.70;79.44
46464;BME280;32161;48.148;-1.554;2023-02-08T07:23:03;102771.75;;;-0.68;79.11
46464;BME280;32161;48.148;-1.554;2023-02-08T07:25:31;102770.03;;;-0.69;79.15
46464;BME280;32161;48.148;-1.554;2023-02-08T07:27:58;102762.91;;;-0.69;79.54
46464;BME280;32161;48.148;-1.554;2023-02-08T07:30:26;102769.09;;;-0.68;80.38
46464;BME280;32161;48.148;-1.554;2023-02-08T07:32:54;102769.28;;;-0.71;81.30
46464;BME280;32161;48.148;-1.554;2023-02-08T07:35:22;102772.63;;;-0.81;82.24
46464;BME280;32161;48.148;-1.554;2023-02-08T07:37:50;102763.06;;;-0.85;81.71
46464;BME280;32161;48.148;-1.554;2023-02-08T07:40:18;102767.56;;;-0.85;81.69
46464;BME280;32161;48.148;-1.554;2023-02-08T07:42:45;102772.25;;;-0.89;82.42
46464;BME280;32161;48.148;-1.554;2023-02-08T07:45:13;102771.41;;;-0.89;82.78
46464;BME280;32161;48.148;-1.554;2023-02-08T07:47:40;102766.72;;;-0.86;83.18
46464;BME280;32161;48.148;-1.554;2023-02-08T07:50:08;102767.88;;;-0.90;83.14
46464;BME280;32161;48.148;-1.554;2023-02-08T07:52:37;102764.47;;;-0.92;82.57
46464;BME280;32161;48.148;-1.554;2023-02-08T07:55:07;102760.09;;;-0.93;82.60
46464;BME280;32161;48.148;-1.554;2023-02-08T07:57:35;102762.66;;;-0.91;82.52
46464;BME280;32161;48.148;-1.554;2023-02-08T08:00:03;102767.88;;;-0.90;83.35
46464;BME280;32161;48.148;-1.554;2023-02-08T08:02:31;102769.72;;;-0.90;83.89
46464;BME280;32161;48.148;-1.554;2023-02-08T08:04:59;102767.81;;;-0.88;83.88
46464;BME280;32161;48.148;-1.554;2023-02-08T08:07:26;102763.31;;;-0.88;84.61
46464;BME280;32161;48.148;-1.554;2023-02-08T08:09:55;102769.38;;;-0.86;84.37
46464;BME280;32161;48.148;-1.554;2023-02-08T08:12:23;102760.31;;;-0.83;84.23
46464;BME280;32161;48.148;-1.554;2023-02-08T08:14:51;102759.16;;;-0.79;84.14
46464;BME280;32161;48.148;-1.554;2023-02-08T08:17:18;102755.63;;;-0.80;85.03
46464;BME280;32161;48.148;-1.554;2023-02-08T08:19:46;102760.13;;;-0.80;85.38
46464;BME280;32161;48.148;-1.554;2023-02-08T08:22:14;102762.88;;;-0.82;85.44
46464;BME280;32161;48.148;-1.554;2023-02-08T08:24:41;102762.78;;;-0.80;85.63
46464;BME280;32161;48.148;-1.554;2023-02-08T08:27:10;102761.41;;;-0.73;85.82
46464;BME280;32161;48.148;-1.554;2023-02-08T08:29:38;102762.00;;;-0.69;86.32
46464;BME280;32161;48.148;-1.554;2023-02-08T08:32:07;102762.56;;;-0.64;86.67
46464;BME280;32161;48.148;-1.554;2023-02-08T08:34:34;102766.94;;;-0.63;86.64
46464;BME280;32161;48.148;-1.554;2023-02-08T08:37:02;102756.69;;;-0.57;86.58
46464;BME280;32161;48.148;-1.554;2023-02-08T08:39:30;102766.28;;;-0.54;86.18
46464;BME280;32161;48.148;-1.554;2023-02-08T08:41:58;102764.38;;;-0.52;85.66
46464;BME280;32161;48.148;-1.554;2023-02-08T08:44:27;102770.22;;;-0.47;85.50
46464;BME280;32161;48.148;-1.554;2023-02-08T08:46:55;102770.03;;;-0.44;85.07
46464;BME280;32161;48.148;-1.554;2023-02-08T08:49:23;102763.63;;;-0.41;84.63
46464;BME280;32161;48.148;-1.554;2023-02-08T08:51:51;102767.00;;;-0.39;84.85
46464;BME280;32161;48.148;-1.554;2023-02-08T08:54:20;102769.34;;;-0.35;84.86
46464;BME280;32161;48.148;-1.554;2023-02-08T08:56:47;102776.22;;;-0.31;85.26
46464;BME280;32161;48.148;-1.554;2023-02-08T08:59:15;102775.22;;;-0.17;86.36
46464;BME280;32161;48.148;-1.554;2023-02-08T09:01:44;102772.84;;;0.04;87.66
46464;BME280;32161;48.148;-1.554;2023-02-08T09:04:12;102768.97;;;0.08;87.86
46464;BME280;32161;48.148;-1.554;2023-02-08T09:06:39;102760.38;;;0.16;88.17
46464;BME280;32161;48.148;-1.554;2023-02-08T09:09:07;102767.22;;;0.20;88.46
46464;BME280;32161;48.148;-1.554;2023-02-08T09:11:35;102753.44;;;0.37;88.41
46464;BME280;32161;48.148;-1.554;2023-02-08T09:14:03;102758.78;;;0.37;88.47
46464;BME280;32161;48.148;-1.554;2023-02-08T09:16:31;102749.72;;;0.51;88.42
46464;BME280;32161;48.148;-1.554;2023-02-08T09:19:01;102746.72;;;0.56;88.56
46464;BME280;32161;48.148;-1.554;2023-02-08T09:21:30;102753.09;;;0.66;88.35
46464;BME280;32161;48.148;-1.554;2023-02-08T09:23:59;102751.31;;;0.78;88.15
46464;BME280;32161;48.148;-1.554;2023-02-08T09:26:27;102749.59;;;0.88;88.23
46464;BME280;32161;48.148;-1.554;2023-02-08T09:28:54;102749.53;;;1.01;88.27
46464;BME280;32161;48.148;-1.554;2023-02-08T09:31:24;102754.53;;;1.05;87.87
46464;BME280;32161;48.148;-1.554;2023-02-08T09:33:55;102758.31;;;1.14;88.13
46464;BME280;32161;48.148;-1.554;2023-02-08T09:36:28;102755.16;;;1.20;87.72
46464;BME280;32161;48.148;-1.554;2023-02-08T09:38:59;102757.50;;;1.25;87.80
46464;BME280;32161;48.148;-1.554;2023-02-08T09:41:51;102759.97;;;1.50;87.58
46464;BME280;32161;48.148;-1.554;2023-02-08T09:44:30;102761.75;;;1.61;87.38
46464;BME280;32161;48.148;-1.554;2023-02-08T09:47:05;102763.97;;;1.67;87.20
46464;BME280;32161;48.148;-1.554;2023-02-08T09:49:38;102755.69;;;1.81;87.34
46464;BME280;32161;48.148;-1.554;2023-02-08T09:52:12;102754.22;;;1.88;86.90
46464;BME280;32161;48.148;-1.554;2023-02-08T09:54:45;102751.75;;;1.97;86.20
46464;BME280;32161;48.148;-1.554;2023-02-08T09:57:21;102760.13;;;2.03;85.91
46464;BME280;32161;48.148;-1.554;2023-02-08T09:59:53;102750.00;;;2.18;86.48
46464;BME280;32161;48.148;-1.554;2023-02-08T10:02:26;102753.28;;;2.22;85.66
46464;BME280;32161;48.148;-1.554;2023-02-08T10:04:58;102741.31;;;2.26;85.47
46464;BME280;32161;48.148;-1.554;2023-02-08T10:07:30;102752.25;;;2.34;85.11
46464;BME280;32161;48.148;-1.554;2023-02-08T10:10:01;102755.16;;;2.42;84.79
46464;BME280;32161;48.148;-1.554;2023-02-08T10:12:41;102756.00;;;2.54;84.78
46464;BME280;32161;48.148;-1.554;2023-02-08T10:15:22;102743.88;;;2.59;84.15
46464;BME280;32161;48.148;-1.554;2023-02-08T10:18:10;102751.63;;;2.74;84.06
46464;BME280;32161;48.148;-1.554;2023-02-08T10:20:55;102750.34;;;2.89;83.58
46464;BME280;32161;48.148;-1.554;2023-02-08T10:26:28;102743.28;;;3.18;82.23
46464;BME280;32161;48.148;-1.554;2023-02-08T10:29:26;102743.19;;;3.20;81.46
46464;BME280;32161;48.148;-1.554;2023-02-08T10:32:14;102754.25;;;3.27;81.45
46464;BME280;32161;48.148;-1.554;2023-02-08T10:34:46;102754.56;;;3.33;80.92
46464;BME280;32161;48.148;-1.554;2023-02-08T10:37:19;102752.47;;;3.37;80.38
46464;BME280;32161;48.148;-1.554;2023-02-08T10:39:49;102754.88;;;3.40;81.42
46464;BME280;32161;48.148;-1.554;2023-02-08T10:42:19;102761.44;;;3.47;81.08
46464;BME280;32161;48.148;-1.554;2023-02-08T10:44:59;102758.91;;;3.55;81.10
46464;BME280;32161;48.148;-1.554;2023-02-08T10:47:43;102752.13;;;3.51;80.41
46464;BME280;32161;48.148;-1.554;2023-02-08T10:50:21;102757.50;;;3.61;81.14
46464;BME280;32161;48.148;-1.554;2023-02-08T10:52:50;102760.25;;;3.71;80.78
46464;BME280;32161;48.148;-1.554;2023-02-08T10:55:20;102762.84;;;3.82;80.30
46464;BME280;32161;48.148;-1.554;2023-02-08T10:57:50;102765.84;;;3.88;79.23
46464;BME280;32161;48.148;-1.554;2023-02-08T11:00:21;102758.53;;;4.00;79.14
46464;BME280;32161;48.148;-1.554;2023-02-08T11:02:50;102769.72;;;4.05;78.68
46464;BME280;32161;48.148;-1.554;2023-02-08T11:05:30;102773.56;;;4.12;78.34
46464;BME280;32161;48.148;-1.554;2023-02-08T11:08:07;102781.81;;;4.21;79.16
46464;BME280;32161;48.148;-1.554;2023-02-08T11:10:37;102774.19;;;4.35;79.23
46464;BME280;32161;48.148;-1.554;2023-02-08T11:13:14;102777.88;;;4.44;79.62
46464;BME280;32161;48.148;-1.554;2023-02-08T11:15:46;102775.03;;;4.46;79.35
46464;BME280;32161;48.148;-1.554;2023-02-08T11:18:21;102769.94;;;4.52;78.42
46464;BME280;32161;48.148;-1.554;2023-02-08T11:20:52;102769.66;;;4.75;77.15
46464;BME280;32161;48.148;-1.554;2023-02-08T11:23:25;102768.53;;;4.68;77.03
46464;BME280;32161;48.148;-1.554;2023-02-08T11:26:11;102769.09;;;4.71;79.29
46464;BME280;32161;48.148;-1.554;2023-02-08T11:28:41;102769.66;;;4.75;78.82
46464;BME280;32161;48.148;-1.554;2023-02-08T11:31:17;102770.06;;;4.80;78.46
46464;BME280;32161;48.148;-1.554;2023-02-08T11:34:01;102767.25;;;4.81;77.85
46464;BME280;32161;48.148;-1.554;2023-02-08T11:36:30;102763.56;;;4.92;78.44
46464;BME280;32161;48.148;-1.554;2023-02-08T11:39:01;102767.97;;;4.93;77.55
46464;BME280;32161;48.148;-1.554;2023-02-08T11:41:30;102766.69;;;4.97;77.63
46464;BME280;32161;48.148;-1.554;2023-02-08T11:44:01;102763.50;;;5.21;75.38
46464;BME280;32161;48.148;-1.554;2023-02-08T11:46:33;102756.38;;;5.30;74.37
46464;BME280;32161;48.148;-1.554;2023-02-08T11:49:01;102750.31;;;5.28;73.38
46464;BME280;32161;48.148;-1.554;2023-02-08T11:51:31;102746.44;;;5.30;73.68
46464;BME280;32161;48.148;-1.554;2023-02-08T11:54:02;102752.72;;;5.31;74.00
46464;BME280;32161;48.148;-1.554;2023-02-08T11:56:33;102748.41;;;5.38;74.35
46464;BME280;32161;48.148;-1.554;2023-02-08T11:59:05;102749.22;;;5.58;73.41
46464;BME280;32161;48.148;-1.554;2023-02-08T12:01:42;102750.50;;;5.54;73.78
46464;BME280;32161;48.148;-1.554;2023-02-08T12:04:12;102743.03;;;5.75;73.66
46464;BME280;32161;48.148;-1.554;2023-02-08T12:07:18;102737.06;;;5.72;74.72
46464;BME280;32161;48.148;-1.554;2023-02-08T12:13:58;102732.78;;;5.79;73.04
46464;BME280;32161;48.148;-1.554;2023-02-08T12:17:10;102720.13;;;5.79;74.21
46464;BME280;32161;48.148;-1.554;2023-02-08T12:20:21;102713.00;;;5.88;72.05
46464;BME280;32161;48.148;-1.554;2023-02-08T12:23:03;102702.34;;;5.86;71.91
46464;BME280;32161;48.148;-1.554;2023-02-08T12:25:42;102711.09;;;5.98;71.68
46464;BME280;32161;48.148;-1.554;2023-02-08T12:28:22;102703.25;;;6.05;70.61
46464;BME280;32161;48.148;-1.554;2023-02-08T12:31:00;102700.00;;;6.01;70.83
46464;BME280;32161;48.148;-1.554;2023-02-08T12:33:44;102697.41;;;6.09;71.26
46464;BME280;32161;48.148;-1.554;2023-02-08T12:36:30;102684.28;;;6.15;71.22
46464;BME280;32161;48.148;-1.554;2023-02-08T12:39:33;102693.38;;;6.14;70.35
46464;BME280;32161;48.148;-1.554;2023-02-08T12:42:36;102697.25;;;6.29;69.25
46464;BME280;32161;48.148;-1.554;2023-02-08T12:48:34;102680.81;;;6.22;70.16
46464;BME280;32161;48.148;-1.554;2023-02-08T12:51:14;102674.50;;;6.31;70.35
46464;BME280;32161;48.148;-1.554;2023-02-08T12:53:47;102669.16;;;6.40;70.28
46464;BME280;32161;48.148;-1.554;2023-02-08T12:56:20;102659.69;;;6.35;69.78
46464;BME280;32161;48.148;-1.554;2023-02-08T12:58:52;102658.84;;;6.35;69.56
46464;BME280;32161;48.148;-1.554;2023-02-08T13:01:28;102655.91;;;6.46;71.12
46464;BME280;32161;48.148;-1.554;2023-02-08T13:04:02;102645.47;;;6.51;71.03
46464;BME280;32161;48.148;-1.554;2023-02-08T13:06:38;102643.47;;;6.53;70.20
46464;BME280;32161;48.148;-1.554;2023-02-08T13:09:15;102635.31;;;6.71;67.82
46464;BME280;32161;48.148;-1.554;2023-02-08T13:11:51;102632.28;;;6.74;67.25
46464;BME280;32161;48.148;-1.554;2023-02-08T13:14:27;102631.06;;;6.69;68.60
46464;BME280;32161;48.148;-1.554;2023-02-08T13:17:04;102617.53;;;6.69;69.12
46464;BME280;32161;48.148;-1.554;2023-02-08T13:19:49;102621.47;;;6.74;69.15
46464;BME280;32161;48.148;-1.554;2023-02-08T13:22:17;102614.22;;;6.75;69.58
46464;BME280;32161;48.148;-1.554;2023-02-08T13:24:46;102612.13;;;6.69;69.31
46464;BME280;32161;48.148;-1.554;2023-02-08T13:27:17;102605.75;;;6.70;69.19
46464;BME280;32161;48.148;-1.554;2023-02-08T13:29:47;102604.09;;;6.77;69.53